createdAt,value
2023-12-12T00:02:03.245Z,98224.88
2023-12-12T00:04:30.150Z,98231.66
2023-12-12T00:06:57.056Z,98227.06
2023-12-12T00:09:24.407Z,98227.06
2023-12-12T00:11:51.372Z,98223.75
2023-12-12T00:14:18.256Z,98225.47
2023-12-12T00:16:45.052Z,98226.56
2023-12-12T00:19:11.945Z,98221.16
2023-12-12T00:21:38.971Z,98234.06
2023-12-12T00:24:06.107Z,98231.38
2023-12-12T00:26:32.926Z,98237.28
2023-12-12T00:28:59.783Z,98229.97
2023-12-12T00:31:26.735Z,98236.47
2023-12-12T00:33:53.620Z,98239.97
2023-12-12T00:36:20.474Z,98228.84
2023-12-12T00:38:47.629Z,98234.06
2023-12-12T00:41:14.497Z,98234.25
2023-12-12T00:43:42.398Z,98231.78
2023-12-12T00:46:14.254Z,98234.69
2023-12-12T00:48:41.271Z,98249.22
2023-12-12T00:51:12.073Z,98235.88
2023-12-12T00:53:39.154Z,98248.63
2023-12-12T00:56:06.355Z,98249.91
2023-12-12T00:58:33.262Z,98242.09
2023-12-12T01:01:00.249Z,98242.72
2023-12-12T01:03:28.235Z,98242.00
2023-12-12T01:05:55.124Z,98252.19
2023-12-12T01:08:21.899Z,98252.09
2023-12-12T01:10:48.886Z,98262.63
2023-12-12T01:13:15.747Z,98244.50
2023-12-12T01:15:42.571Z,98249.13
2023-12-12T01:18:09.515Z,98249.91
2023-12-12T01:20:36.362Z,98249.41
2023-12-12T01:23:03.641Z,98253.31
2023-12-12T01:25:31.248Z,98239.59
2023-12-12T01:27:58.354Z,98233.09
2023-12-12T01:30:25.249Z,98221.47
2023-12-12T01:32:52.072Z,98220.38
2023-12-12T01:35:18.916Z,98212.25
2023-12-12T01:37:45.775Z,98216.06
2023-12-12T01:40:12.998Z,98212.06
2023-12-12T01:42:39.842Z,98211.25
2023-12-12T01:45:07.666Z,98215.84
2023-12-12T01:47:35.449Z,98228.66
2023-12-12T01:50:03.194Z,98222.16
2023-12-12T01:52:30.493Z,98224.38
2023-12-12T01:54:58.635Z,98223.88
2023-12-12T01:57:25.926Z,98222.34
2023-12-12T01:59:53.789Z,98212.91
2023-12-12T02:02:21.039Z,98211.13
2023-12-12T02:04:50.203Z,98220.59
2023-12-12T02:07:18.136Z,98210.91
2023-12-12T02:09:45.709Z,98209.59
2023-12-12T02:12:12.606Z,98205.00
2023-12-12T02:14:40.799Z,98202.00
2023-12-12T02:17:07.676Z,98196.00
2023-12-12T02:19:34.791Z,98183.00
2023-12-12T02:22:01.749Z,98185.19
2023-12-12T02:24:28.579Z,98193.59
2023-12-12T02:26:55.786Z,98193.41
2023-12-12T02:29:22.914Z,98198.00
2023-12-12T02:31:49.694Z,98205.81
2023-12-12T02:34:16.806Z,98196.09
2023-12-12T02:36:44.928Z,98206.41
2023-12-12T02:39:12.639Z,98199.41
2023-12-12T02:41:39.460Z,98202.69
2023-12-12T02:44:06.816Z,98200.28
2023-12-12T02:46:33.664Z,98197.91
2023-12-12T02:49:00.635Z,98203.81
2023-12-12T02:51:27.594Z,98207.88
2023-12-12T02:53:54.418Z,98197.38
2023-12-12T02:56:21.260Z,98189.78
2023-12-12T02:58:48.078Z,98197.59
2023-12-12T03:01:15.916Z,98191.38
2023-12-12T03:03:44.230Z,98195.38
2023-12-12T03:06:11.257Z,98191.59
2023-12-12T03:08:38.063Z,98191.78
2023-12-12T03:11:05.024Z,98179.38
2023-12-12T03:13:35.823Z,98170.78
2023-12-12T03:16:02.914Z,98165.97
2023-12-12T03:18:29.947Z,98172.75
2023-12-12T03:20:56.804Z,98168.97
2023-12-12T03:23:23.626Z,98175.19
2023-12-12T03:25:50.502Z,98174.38
2023-12-12T03:28:17.484Z,98174.38
2023-12-12T03:30:44.694Z,98166.06
2023-12-12T03:33:11.635Z,98159.16
2023-12-12T03:35:38.497Z,98160.03
2023-12-12T03:38:05.363Z,98139.34
2023-12-12T03:40:32.191Z,98137.25
2023-12-12T03:42:59.187Z,98132.63
2023-12-12T03:45:26.044Z,98135.56
2023-12-12T03:47:52.832Z,98124.75
2023-12-12T03:50:19.745Z,98124.75
2023-12-12T03:52:46.592Z,98120.72
2023-12-12T03:55:13.598Z,98121.72
2023-12-12T03:57:40.515Z,98116.66
2023-12-12T04:00:08.812Z,98121.03
2023-12-12T04:02:35.767Z,98110.53
2023-12-12T04:05:04.128Z,98118.13
2023-12-12T04:07:31.184Z,98121.31
2023-12-12T04:09:58.150Z,98108.13
2023-12-12T04:12:25.080Z,98108.91
2023-12-12T04:14:51.949Z,98115.75
2023-12-12T04:17:18.810Z,98113.28
2023-12-12T04:19:45.688Z,98117.88
2023-12-12T04:22:12.611Z,98119.06
2023-12-12T04:24:39.634Z,98112.56
2023-12-12T04:27:06.469Z,98101.47
2023-12-12T04:29:33.311Z,98111.47
2023-12-12T04:32:00.339Z,98114.47
2023-12-12T04:34:27.188Z,98121.16
2023-12-12T04:36:54.153Z,98115.16
2023-12-12T04:39:21.247Z,98111.69
2023-12-12T04:41:48.130Z,98106.28
2023-12-12T04:44:15.003Z,98110.78
2023-12-12T04:46:42.740Z,98106.19
2023-12-12T04:49:10.273Z,98105.88
2023-12-12T04:51:37.566Z,98110.91
2023-12-12T04:54:04.927Z,98102.22
2023-12-12T04:56:31.779Z,98100.91
2023-12-12T04:58:58.624Z,98103.81
2023-12-12T05:01:26.219Z,98110.22
2023-12-12T05:03:53.213Z,98109.22
2023-12-12T05:06:20.284Z,98111.59
2023-12-12T05:08:47.627Z,98105.00
2023-12-12T05:11:14.771Z,98106.28
2023-12-12T05:13:42.510Z,98103.09
2023-12-12T05:16:20.744Z,98091.97
2023-12-12T05:18:55.872Z,98089.50
2023-12-12T05:21:23.259Z,98088.00
2023-12-12T05:23:50.903Z,98090.31
2023-12-12T05:26:20.977Z,98097.00
2023-12-12T05:28:48.534Z,98088.19
2023-12-12T05:31:15.821Z,98081.13
2023-12-12T05:33:42.868Z,98070.22
2023-12-12T05:36:10.477Z,98067.53
2023-12-12T05:38:39.976Z,98065.81
2023-12-12T05:41:07.706Z,98056.91
2023-12-12T05:43:34.937Z,98065.63
2023-12-12T05:46:01.998Z,98061.81
2023-12-12T05:48:29.727Z,98065.00
2023-12-12T05:50:57.453Z,98063.41
2023-12-12T05:53:24.249Z,98067.72
2023-12-12T05:55:51.001Z,98070.13
2023-12-12T05:58:17.942Z,98071.41
2023-12-12T06:00:44.781Z,98073.31
2023-12-12T06:03:11.627Z,98070.91
2023-12-12T06:05:38.539Z,98059.31
2023-12-12T06:08:05.544Z,98074.94
2023-12-12T06:10:32.347Z,98057.31
2023-12-12T06:12:59.680Z,98058.91
2023-12-12T06:15:26.590Z,98056.19
2023-12-12T06:17:53.479Z,98060.00
2023-12-12T06:20:20.367Z,98053.31
2023-12-12T06:22:47.274Z,98044.13
2023-12-12T06:25:14.102Z,98051.13
2023-12-12T06:27:41.004Z,98044.63
2023-12-12T06:30:08.855Z,98033.81
2023-12-12T06:32:35.865Z,98036.78
2023-12-12T06:35:05.406Z,98021.09
2023-12-12T06:37:32.669Z,98021.09
2023-12-12T06:39:59.851Z,98021.09
2023-12-12T06:42:27.034Z,98013.31
2023-12-12T06:44:53.900Z,98008.41
2023-12-12T06:47:21.252Z,97997.88
2023-12-12T06:49:48.317Z,98010.59
2023-12-12T06:52:15.400Z,98014.91
2023-12-12T06:54:42.243Z,98023.50
2023-12-12T06:57:09.161Z,98021.50
2023-12-12T06:59:36.035Z,98033.09
2023-12-12T07:02:03.166Z,98025.31
2023-12-12T07:04:30.519Z,98018.09
2023-12-12T07:06:57.623Z,98031.59
2023-12-12T07:09:24.510Z,98041.53
2023-12-12T07:11:51.356Z,98036.13
2023-12-12T07:14:18.215Z,98042.00
2023-12-12T07:16:45.002Z,98051.22
2023-12-12T07:19:11.838Z,98052.31
2023-12-12T07:21:45.718Z,98048.53
2023-12-12T07:24:15.793Z,98057.41
2023-12-12T07:26:48.270Z,98046.09
2023-12-12T07:29:18.648Z,98037.72
2023-12-12T07:31:47.458Z,98020.19
2023-12-12T07:34:14.717Z,98006.69
2023-12-12T07:36:42.550Z,98010.09
2023-12-12T07:39:09.462Z,98005.50
2023-12-12T07:41:36.468Z,98014.91
2023-12-12T07:44:06.399Z,98024.00
2023-12-12T07:46:40.540Z,98021.78
2023-12-12T07:49:08.081Z,98023.88
2023-12-12T07:51:35.374Z,98022.19
2023-12-12T07:54:07.163Z,98007.25
2023-12-12T07:56:34.104Z,98007.75
2023-12-12T07:59:01.022Z,98019.06
2023-12-12T08:01:28.592Z,97993.00
2023-12-12T08:03:56.213Z,97978.59
2023-12-12T08:06:23.338Z,97988.31
2023-12-12T08:08:50.180Z,97992.13
2023-12-12T08:11:17.083Z,97973.97
2023-12-12T08:13:44.996Z,97980.38
2023-12-12T08:16:12.221Z,97953.88
2023-12-12T08:18:39.346Z,97943.25
2023-12-12T08:21:07.397Z,97931.72
2023-12-12T08:23:35.457Z,97929.50
2023-12-12T08:26:02.446Z,97943.63
2023-12-12T08:28:29.404Z,97941.13
2023-12-12T08:30:56.571Z,97944.31
2023-12-12T08:33:23.954Z,97936.09
2023-12-12T08:35:51.081Z,97931.81
2023-12-12T08:38:17.929Z,97932.63
2023-12-12T08:40:44.819Z,97918.63
2023-12-12T08:43:11.810Z,97921.63
2023-12-12T08:45:38.731Z,97918.31
2023-12-12T08:48:06.102Z,97940.41
2023-12-12T08:50:32.997Z,97943.63
2023-12-12T08:52:59.833Z,97932.81
2023-12-12T08:55:26.992Z,97946.19
2023-12-12T08:57:53.973Z,97946.38
2023-12-12T09:00:20.896Z,97941.75
2023-12-12T09:02:47.803Z,97946.38
2023-12-12T09:05:14.693Z,97946.06
2023-12-12T09:07:41.831Z,97941.94
2023-12-12T09:10:09.593Z,97944.34
2023-12-12T09:12:36.544Z,97944.66
2023-12-12T09:15:04.247Z,97936.72
2023-12-12T09:17:31.404Z,97929.56
2023-12-12T09:19:58.651Z,97920.84
2023-12-12T09:22:25.619Z,97906.19
2023-12-12T09:24:54.632Z,97904.16
2023-12-12T09:27:21.595Z,97903.69
2023-12-12T09:29:48.426Z,97906.25
2023-12-12T09:32:15.492Z,97899.44
2023-12-12T09:34:42.412Z,97904.84
2023-12-12T09:37:09.348Z,97901.03
2023-12-12T09:39:36.137Z,97893.41
2023-12-12T09:42:14.442Z,97886.59
2023-12-12T09:44:45.520Z,97882.78
2023-12-12T09:47:14.452Z,97874.66
2023-12-12T09:49:42.308Z,97879.56
2023-12-12T09:52:10.212Z,97872.56
2023-12-12T09:54:38.885Z,97863.34
2023-12-12T09:57:06.525Z,97859.69
2023-12-12T09:59:33.565Z,97855.84
2023-12-12T10:02:06.578Z,97843.91
2023-12-12T10:04:45.449Z,97842.81
2023-12-12T10:07:18.685Z,97837.56
2023-12-12T10:09:45.929Z,97838.06
2023-12-12T10:12:13.062Z,97840.75
2023-12-12T10:14:42.476Z,97832.16
2023-12-12T10:17:12.059Z,97819.75
2023-12-12T10:19:39.808Z,97815.44
2023-12-12T10:22:10.985Z,97810.03
2023-12-12T10:24:38.656Z,97810.03
2023-12-12T10:27:05.751Z,97804.91
2023-12-12T10:29:33.377Z,97797.13
2023-12-12T10:32:03.931Z,97773.88
2023-12-12T10:34:31.466Z,97777.72
2023-12-12T10:37:02.744Z,97768.94
2023-12-12T10:39:32.714Z,97767.19
2023-12-12T10:42:00.824Z,97756.38
2023-12-12T10:44:39.461Z,97755.56
2023-12-12T10:47:14.125Z,97745.34
2023-12-12T10:49:46.485Z,97738.03
2023-12-12T10:52:16.782Z,97735.16
2023-12-12T10:54:45.518Z,97743.78
2023-12-12T10:57:14.723Z,97736.63
2023-12-12T10:59:58.931Z,97736.44
2023-12-12T11:02:32.477Z,97750.00
2023-12-12T11:05:01.832Z,97739.00
2023-12-12T11:07:28.918Z,97733.75
2023-12-12T11:09:55.934Z,97722.28
2023-12-12T11:12:23.488Z,97708.41
2023-12-12T11:14:50.744Z,97716.53
2023-12-12T11:17:20.116Z,97710.34
2023-12-12T11:19:47.263Z,97712.41
2023-12-12T11:22:46.950Z,97713.53
2023-12-12T11:25:22.592Z,97711.94
2023-12-12T11:27:55.356Z,97695.69
2023-12-12T11:30:35.202Z,97676.25
2023-12-12T11:33:02.399Z,97685.50
2023-12-12T11:35:34.591Z,97694.91
2023-12-12T11:38:29.526Z,97678.66
2023-12-12T11:41:18.654Z,97658.59
2023-12-12T11:43:48.717Z,97655.41
2023-12-12T11:46:21.341Z,97649.50
2023-12-12T11:48:48.910Z,97640.28
2023-12-12T11:51:34.563Z,97642.97
2023-12-12T11:54:07.841Z,97646.31
2023-12-12T11:56:35.261Z,97628.97
2023-12-12T11:59:02.576Z,97638.69
2023-12-12T12:01:29.572Z,97632.28
2023-12-12T12:03:56.456Z,97632.28
2023-12-12T12:06:23.411Z,97629.09
2023-12-12T12:08:51.545Z,97632.94
2023-12-12T12:11:18.465Z,97643.75
2023-12-12T12:13:45.817Z,97635.63
2023-12-12T12:16:15.051Z,97646.63
2023-12-12T12:18:42.035Z,97658.09
2023-12-12T12:21:09.351Z,97663.84
2023-12-12T12:23:40.389Z,97655.09
2023-12-12T12:26:07.992Z,97638.03
2023-12-12T12:28:37.004Z,97631.50
2023-12-12T12:31:06.674Z,97616.06
2023-12-12T12:33:36.518Z,97631.50
2023-12-12T12:36:03.640Z,97641.22
2023-12-12T12:38:32.625Z,97620.38
2023-12-12T12:41:00.414Z,97620.38
2023-12-12T12:43:27.763Z,97631.03
2023-12-12T12:45:55.322Z,97627.53
2023-12-12T12:48:22.606Z,97640.44
2023-12-12T12:50:51.065Z,97629.13
2023-12-12T12:53:18.663Z,97623.25
2023-12-12T12:55:46.290Z,97623.91
2023-12-12T12:58:14.467Z,97628.34
2023-12-12T13:00:45.779Z,97614.00
2023-12-12T13:03:14.452Z,97604.78
2023-12-12T13:05:41.631Z,97588.53
2023-12-12T13:08:08.759Z,97583.59
2023-12-12T13:10:43.949Z,97585.19
2023-12-12T13:13:18.279Z,97589.81
2023-12-12T13:15:45.275Z,97593.66
2023-12-12T13:18:12.160Z,97618.47
2023-12-12T13:20:38.986Z,97599.84
2023-12-12T13:23:05.771Z,97586.31
2023-12-12T13:25:32.932Z,97569.75
2023-12-12T13:28:00.195Z,97557.34
2023-12-12T13:30:27.468Z,97565.13
2023-12-12T13:32:54.551Z,97547.44
2023-12-12T13:35:33.939Z,97524.97
2023-12-12T13:38:04.839Z,97514.88
2023-12-12T13:40:32.563Z,97508.94
2023-12-12T13:42:59.823Z,97506.72
2023-12-12T13:45:26.805Z,97492.19
2023-12-12T13:47:53.893Z,97492.34
2023-12-12T13:50:22.472Z,97494.25
2023-12-12T13:52:49.421Z,97502.84
2023-12-12T13:55:16.306Z,97506.38
2023-12-12T13:57:43.204Z,97494.06
2023-12-12T14:00:13.531Z,97488.34
2023-12-12T14:02:41.834Z,97496.47
2023-12-12T14:05:09.654Z,97495.66
2023-12-12T14:07:37.040Z,97494.06
2023-12-12T14:10:07.814Z,97504.44
2023-12-12T14:12:35.897Z,97513.69
2023-12-12T14:15:04.846Z,97522.63
2023-12-12T14:17:32.032Z,97503.97
2023-12-12T14:19:59.118Z,97519.44
2023-12-12T14:22:26.034Z,97509.38
2023-12-12T14:24:52.986Z,97506.38
2023-12-12T14:27:21.053Z,97499.47
2023-12-12T14:29:47.928Z,97492.16
2023-12-12T14:32:15.606Z,97485.94
2023-12-12T14:34:43.347Z,97488.66
2023-12-12T14:37:10.526Z,97492.16
2023-12-12T14:39:37.350Z,97489.00
2023-12-12T14:42:04.584Z,97491.22
2023-12-12T14:44:31.429Z,97496.66
2023-12-12T14:46:58.280Z,97489.97
2023-12-12T14:49:25.842Z,97488.38
2023-12-12T14:51:55.645Z,97480.91
2023-12-12T14:54:22.800Z,97477.38
2023-12-12T14:56:52.771Z,97473.09
2023-12-12T14:59:19.836Z,97462.59
2023-12-12T15:01:46.687Z,97454.78
2023-12-12T15:04:13.729Z,97445.41
2023-12-12T15:06:41.467Z,97450.84
2023-12-12T15:09:12.414Z,97464.38
2023-12-12T15:11:42.965Z,97472.63
2023-12-12T15:14:09.959Z,97474.22
2023-12-12T15:16:37.293Z,97470.53
2023-12-12T15:19:04.306Z,97464.31
2023-12-12T15:21:31.240Z,97470.84
2023-12-12T15:23:58.486Z,97459.44
2023-12-12T15:26:25.586Z,97453.53
2023-12-12T15:28:52.492Z,97449.25
2023-12-12T15:31:19.526Z,97453.53
2023-12-12T15:33:46.597Z,97449.25
2023-12-12T15:36:13.616Z,97447.31
2023-12-12T15:38:40.441Z,97455.44
2023-12-12T15:41:07.732Z,97463.25
2023-12-12T15:43:35.520Z,97455.44
2023-12-12T15:46:02.783Z,97451.97
2023-12-12T15:48:30.212Z,97450.38
2023-12-12T15:50:57.377Z,97450.22
2023-12-12T15:53:24.480Z,97452.94
2023-12-12T15:55:54.074Z,97452.94
2023-12-12T15:58:21.324Z,97439.38
2023-12-12T16:00:48.512Z,97432.84
2023-12-12T16:03:17.368Z,97433.97
2023-12-12T16:05:44.410Z,97426.19
2023-12-12T16:08:13.169Z,97414.56
2023-12-12T16:10:40.061Z,97425.72
2023-12-12T16:13:07.077Z,97428.44
2023-12-12T16:15:34.189Z,97426.84
2023-12-12T16:18:04.300Z,97424.13
2023-12-12T16:20:31.394Z,97426.03
2023-12-12T16:22:58.290Z,97416.00
2023-12-12T16:25:25.246Z,97407.09
2023-12-12T16:27:53.219Z,97412.84
2023-12-12T16:30:21.349Z,97409.00
2023-12-12T16:32:54.409Z,97411.72
2023-12-12T16:35:25.198Z,97400.88
2023-12-12T16:37:52.750Z,97395.78
2023-12-12T16:40:19.967Z,97394.19
2023-12-12T16:42:46.945Z,97398.44
2023-12-12T16:45:15.494Z,97402.13
2023-12-12T16:47:42.978Z,97395.47
2023-12-12T16:50:11.973Z,97411.56
2023-12-12T16:52:39.180Z,97402.97
2023-12-12T16:55:07.496Z,97405.69
2023-12-12T16:57:37.047Z,97398.09
2023-12-12T17:00:08.710Z,97408.78
2023-12-12T17:02:37.384Z,97415.19
2023-12-12T17:05:06.559Z,97412.13
2023-12-12T17:07:33.905Z,97405.75
2023-12-12T17:10:01.381Z,97399.22
2023-12-12T17:12:28.273Z,97396.81
2023-12-12T17:14:55.173Z,97409.56
2023-12-12T17:17:22.090Z,97413.88
2023-12-12T17:19:49.036Z,97411.94
2023-12-12T17:22:16.062Z,97413.88
2023-12-12T17:24:43.069Z,97415.00
2023-12-12T17:27:09.867Z,97415.66
2023-12-12T17:29:36.814Z,97415.66
2023-12-12T17:32:05.781Z,97416.41
2023-12-12T17:34:32.975Z,97405.75
2023-12-12T17:36:59.793Z,97390.44
2023-12-12T17:39:26.878Z,97373.06
2023-12-12T17:41:54.126Z,97376.25
2023-12-12T17:44:20.944Z,97366.53
2023-12-12T17:46:47.800Z,97378.97
2023-12-12T17:49:14.687Z,97381.66
2023-12-12T17:51:42.632Z,97379.72
2023-12-12T17:54:09.513Z,97382.13
2023-12-12T17:56:36.535Z,97384.84
2023-12-12T17:59:05.222Z,97383.72
2023-12-12T18:01:38.372Z,97390.72
2023-12-12T18:04:05.973Z,97408.09
2023-12-12T18:06:33.561Z,97402.19
2023-12-12T18:09:01.209Z,97400.63
2023-12-12T18:11:31.522Z,97388.19
2023-12-12T18:14:02.196Z,97382.31
2023-12-12T18:16:29.447Z,97382.50
2023-12-12T18:18:56.658Z,97373.47
2023-12-12T18:21:23.574Z,97364.88
2023-12-12T18:23:50.455Z,97374.91
2023-12-12T18:26:17.393Z,97370.94
2023-12-12T18:28:47.419Z,97369.81
2023-12-12T18:31:15.225Z,97357.88
2023-12-12T18:33:42.812Z,97367.59
2023-12-12T18:36:11.313Z,97354.97
2023-12-12T18:38:38.545Z,97368.63
2023-12-12T18:41:08.780Z,97372.63
2023-12-12T18:43:35.683Z,97351.88
2023-12-12T18:46:02.863Z,97356.66
2023-12-12T18:48:29.966Z,97354.59
2023-12-12T18:50:56.877Z,97364.97
2023-12-12T18:53:23.824Z,97362.91
2023-12-12T18:55:51.517Z,97354.13
2023-12-12T18:58:19.033Z,97347.25
2023-12-12T19:00:45.937Z,97348.84
2023-12-12T19:03:13.190Z,97354.25
2023-12-12T19:05:40.660Z,97357.41
2023-12-12T19:08:07.576Z,97362.97
2023-12-12T19:10:35.788Z,97356.91
2023-12-12T19:13:03.761Z,97356.91
2023-12-12T19:15:30.593Z,97353.41
2023-12-12T19:17:57.526Z,97337.50
2023-12-12T19:20:24.527Z,97337.03
2023-12-12T19:22:53.947Z,97332.41
2023-12-12T19:25:20.870Z,97329.56
2023-12-12T19:27:48.181Z,97324.16
2023-12-12T19:30:15.323Z,97326.41
2023-12-12T19:32:43.494Z,97339.13
2023-12-12T19:35:11.213Z,97328.00
2023-12-12T19:37:39.958Z,97328.75
2023-12-12T19:40:08.732Z,97333.41
2023-12-12T19:42:35.958Z,97318.28
2023-12-12T19:45:04.117Z,97310.94
2023-12-12T19:47:31.220Z,97317.16
2023-12-12T19:50:01.270Z,97325.28
2023-12-12T19:52:30.407Z,97329.22
2023-12-12T19:54:57.253Z,97334.66
2023-12-12T19:57:24.893Z,97332.28
2023-12-12T19:59:51.813Z,97337.53
2023-12-12T20:02:18.700Z,97340.91
2023-12-12T20:04:45.590Z,97345.84
2023-12-12T20:07:14.384Z,97352.41
2023-12-12T20:09:42.521Z,97350.50
2023-12-12T20:12:10.613Z,97351.75
2023-12-12T20:14:38.306Z,97337.44
2023-12-12T20:17:08.205Z,97346.66
2023-12-12T20:19:35.670Z,97343.16
2023-12-12T20:22:06.829Z,97328.84
2023-12-12T20:24:33.854Z,97342.84
2023-12-12T20:27:00.707Z,97332.47
2023-12-12T20:29:27.575Z,97325.13
2023-12-12T20:31:55.193Z,97318.59
2023-12-12T20:34:22.138Z,97314.44
2023-12-12T20:36:49.738Z,97309.50
2023-12-12T20:39:16.906Z,97314.25
2023-12-12T20:41:47.736Z,97320.59
2023-12-12T20:44:14.640Z,97313.25
2023-12-12T20:46:42.362Z,97302.09
2023-12-12T20:49:09.759Z,97300.84
2023-12-12T20:51:38.390Z,97302.31
2023-12-12T20:54:05.564Z,97299.59
2023-12-12T20:56:34.659Z,97290.66
2023-12-12T20:59:01.585Z,97301.19
2023-12-12T21:01:28.406Z,97307.38
2023-12-12T21:03:55.317Z,97309.75
2023-12-12T21:06:22.176Z,97316.41
2023-12-12T21:08:49.180Z,97332.34
2023-12-12T21:11:16.171Z,97352.22
2023-12-12T21:13:43.200Z,97365.09
2023-12-12T21:16:20.084Z,97374.34
2023-12-12T21:18:47.288Z,97374.56
2023-12-12T21:21:14.351Z,97372.03
2023-12-12T21:23:41.477Z,97376.53
2023-12-12T21:26:08.924Z,97366.66
2023-12-12T21:28:39.407Z,97367.00
2023-12-12T21:31:07.542Z,97371.69
2023-12-12T21:33:34.788Z,97369.16
2023-12-12T21:36:01.781Z,97373.66
2023-12-12T21:38:29.722Z,97374.16
2023-12-12T21:40:56.804Z,97362.72
2023-12-12T21:43:23.861Z,97347.28
2023-12-12T21:45:50.766Z,97347.63
2023-12-12T21:48:17.870Z,97337.44
2023-12-12T21:50:44.823Z,97346.34
2023-12-12T21:53:11.843Z,97353.69
2023-12-12T21:55:39.570Z,97354.50
2023-12-12T21:58:06.429Z,97348.31
2023-12-12T22:00:33.268Z,97346.38
2023-12-12T22:03:00.096Z,97346.06
2023-12-12T22:05:27.120Z,97336.34
2023-12-12T22:07:54.253Z,97335.72
2023-12-12T22:10:21.302Z,97331.06
2023-12-12T22:12:48.155Z,97325.66
2023-12-12T22:15:14.997Z,97329.19
2023-12-12T22:17:41.992Z,97322.97
2023-12-12T22:20:09.533Z,97331.88
2023-12-12T22:22:38.161Z,97329.97
2023-12-12T22:25:06.056Z,97326.94
2023-12-12T22:27:33.155Z,97329.97
2023-12-12T22:30:01.731Z,97331.72
2023-12-12T22:32:28.883Z,97332.84
2023-12-12T22:34:55.865Z,97326.84
2023-12-12T22:37:23.042Z,97327.03
2023-12-12T22:39:49.920Z,97325.75
2023-12-12T22:42:16.756Z,97327.69
2023-12-12T22:44:44.191Z,97333.75
2023-12-12T22:47:12.079Z,97338.69
2023-12-12T22:49:39.040Z,97340.13
2023-12-12T22:52:06.306Z,97335.16
2023-12-12T22:54:33.216Z,97342.63
2023-12-12T22:57:00.806Z,97342.16
2023-12-12T22:59:27.705Z,97342.81
2023-12-12T23:01:54.547Z,97348.56
2023-12-12T23:04:21.438Z,97350.81
2023-12-12T23:06:49.606Z,97362.41
2023-12-12T23:09:16.737Z,97353.97
2023-12-12T23:11:43.540Z,97357.16
2023-12-12T23:14:10.371Z,97364.91
2023-12-12T23:16:37.452Z,97364.91
2023-12-12T23:19:04.382Z,97370.84
2023-12-12T23:21:32.272Z,97371.03
2023-12-12T23:23:59.221Z,97363.69
2023-12-12T23:26:26.782Z,97345.75
2023-12-12T23:28:54.843Z,97335.75
2023-12-12T23:31:21.748Z,97336.25
2023-12-12T23:33:48.777Z,97331.94
2023-12-12T23:36:15.627Z,97334.66
2023-12-12T23:38:42.379Z,97322.72
2023-12-12T23:41:09.165Z,97320.03
2023-12-12T23:43:36.773Z,97322.72
2023-12-12T23:46:04.805Z,97320.03
2023-12-12T23:48:31.701Z,97319.25
2023-12-12T23:50:58.782Z,97311.59
2023-12-12T23:53:33.536Z,97305.72
2023-12-12T23:56:01.696Z,97288.41
2023-12-12T23:58:28.504Z,97288.91
